createdAt,value
2018-07-22T00:01:50.877Z,14.67
2018-07-22T00:04:18.475Z,14.97
2018-07-22T00:06:46.201Z,19.53
2018-07-22T00:09:13.933Z,19.20
2018-07-22T00:11:41.541Z,16.43
2018-07-22T00:14:15.922Z,14.70
2018-07-22T00:16:43.622Z,21.33
2018-07-22T00:19:11.338Z,13.30
2018-07-22T00:21:39.069Z,12.40
2018-07-22T00:24:07.507Z,16.33
2018-07-22T00:26:35.080Z,17.30
2018-07-22T00:29:02.743Z,21.13
2018-07-22T00:31:30.538Z,15.60
2018-07-22T00:33:58.106Z,11.60
2018-07-22T00:36:25.764Z,12.30
2018-07-22T00:38:53.396Z,9.57
2018-07-22T00:41:21.183Z,11.17
2018-07-22T00:43:48.808Z,10.40
2018-07-22T00:46:16.583Z,13.07
2018-07-22T00:48:44.273Z,11.90
2018-07-22T00:51:12.009Z,12.90
2018-07-22T00:53:39.644Z,12.70
2018-07-22T00:56:07.280Z,11.47
2018-07-22T00:58:34.926Z,14.03
2018-07-22T01:01:03.377Z,11.63
2018-07-22T01:03:31.039Z,11.10
2018-07-22T01:05:58.673Z,9.80
2018-07-22T01:08:26.316Z,12.07
2018-07-22T01:10:53.938Z,10.47
2018-07-22T01:13:22.598Z,10.03
2018-07-22T01:15:50.293Z,12.87
2018-07-22T01:18:18.043Z,10.50
2018-07-22T01:20:45.767Z,13.93
2018-07-22T01:23:13.437Z,9.90
2018-07-22T01:25:41.681Z,12.40
2018-07-22T01:28:09.378Z,9.70
2018-07-22T01:30:37.036Z,9.90
2018-07-22T01:33:04.698Z,13.80
2018-07-22T01:35:32.421Z,14.47
2018-07-22T01:38:00.064Z,10.47
2018-07-22T01:40:27.743Z,11.03
2018-07-22T01:42:55.465Z,10.50
2018-07-22T01:45:23.148Z,12.73
2018-07-22T01:47:50.781Z,8.80
2018-07-22T01:50:18.471Z,10.70
2018-07-22T01:52:46.085Z,10.60
2018-07-22T01:55:13.791Z,14.07
2018-07-22T01:57:41.450Z,12.83
2018-07-22T02:00:09.350Z,13.03
2018-07-22T02:02:36.970Z,10.90
2018-07-22T02:05:05.041Z,9.97
2018-07-22T02:07:33.387Z,10.33
2018-07-22T02:10:01.001Z,12.13
2018-07-22T02:12:28.877Z,9.93
2018-07-22T02:14:56.547Z,11.20
2018-07-22T02:17:24.264Z,10.83
2018-07-22T02:19:51.944Z,11.50
2018-07-22T02:22:19.590Z,12.10
2018-07-22T02:24:47.225Z,12.73
2018-07-22T02:27:15.212Z,10.63
2018-07-22T02:29:42.886Z,11.80
2018-07-22T02:32:10.591Z,14.43
2018-07-22T02:34:38.232Z,16.43
2018-07-22T02:37:05.868Z,17.53
2018-07-22T02:39:33.511Z,15.63
2018-07-22T02:42:01.990Z,11.20
2018-07-22T02:44:29.662Z,13.23
2018-07-22T02:46:57.369Z,17.03
2018-07-22T02:49:25.049Z,19.10
2018-07-22T02:51:52.729Z,12.87
2018-07-22T02:54:20.427Z,15.80
2018-07-22T02:56:48.097Z,15.47
2018-07-22T02:59:15.711Z,20.70
2018-07-22T03:01:43.341Z,16.57
2018-07-22T03:04:11.049Z,14.70
2018-07-22T03:06:38.684Z,21.73
2018-07-22T03:09:07.912Z,19.63
2018-07-22T03:11:35.667Z,20.23
2018-07-22T03:14:03.403Z,21.77
2018-07-22T03:16:31.073Z,23.53
2018-07-22T03:18:58.763Z,24.83
2018-07-22T03:21:26.442Z,25.73
2018-07-22T03:23:54.095Z,27.13
2018-07-22T03:26:21.748Z,21.13
2018-07-22T03:28:50.238Z,27.53
2018-07-22T03:31:17.905Z,26.70
2018-07-22T03:33:45.519Z,41.27
2018-07-22T03:36:13.261Z,26.23
2018-07-22T03:38:40.884Z,25.57
2018-07-22T03:41:08.556Z,23.77
2018-07-22T03:43:36.308Z,23.20
2018-07-22T03:46:04.320Z,27.97
2018-07-22T03:48:31.963Z,24.93
2018-07-22T03:50:59.666Z,25.73
2018-07-22T03:53:27.400Z,22.27
2018-07-22T03:55:55.060Z,21.53
2018-07-22T03:58:22.685Z,24.30
2018-07-22T04:00:50.294Z,22.33
2018-07-22T04:03:17.945Z,20.53
2018-07-22T04:05:45.605Z,24.33
2018-07-22T04:08:13.305Z,23.60
2018-07-22T04:10:40.912Z,20.83
2018-07-22T04:13:08.672Z,20.23
2018-07-22T04:15:37.784Z,20.20
2018-07-22T04:18:05.464Z,20.60
2018-07-22T04:20:33.125Z,22.23
2018-07-22T04:23:00.833Z,20.83
2018-07-22T04:25:28.449Z,23.97
2018-07-22T04:27:56.135Z,25.20
2018-07-22T04:30:24.157Z,24.53
2018-07-22T04:32:51.877Z,26.63
2018-07-22T04:35:19.505Z,23.00
2018-07-22T04:37:47.160Z,23.17
2018-07-22T04:40:14.782Z,24.17
2018-07-22T04:42:42.493Z,21.80
2018-07-22T04:45:10.120Z,21.30
2018-07-22T04:47:37.800Z,22.50
2018-07-22T04:50:05.484Z,21.40
2018-07-22T04:52:33.188Z,26.43
2018-07-22T04:55:00.916Z,23.47
2018-07-22T04:57:28.658Z,22.20
2018-07-22T04:59:56.314Z,26.13
2018-07-22T05:02:23.935Z,25.67
2018-07-22T05:04:51.583Z,24.33
2018-07-22T05:07:19.327Z,39.63
2018-07-22T05:09:47.089Z,25.63
2018-07-22T05:12:14.714Z,24.57
2018-07-22T05:14:42.396Z,25.23
2018-07-22T05:17:10.005Z,27.00
2018-07-22T05:19:37.675Z,24.20
2018-07-22T05:22:05.503Z,27.37
2018-07-22T05:24:33.491Z,27.90
2018-07-22T05:27:01.107Z,26.20
2018-07-22T05:29:31.302Z,26.73
2018-07-22T05:31:58.931Z,25.40
2018-07-22T05:34:26.576Z,29.07
2018-07-22T05:36:54.347Z,26.23
2018-07-22T05:39:22.047Z,26.17
2018-07-22T05:41:49.699Z,28.13
2018-07-22T05:44:17.279Z,25.03
2018-07-22T05:46:44.975Z,31.20
2018-07-22T05:49:12.635Z,25.70
2018-07-22T05:51:40.286Z,25.47
2018-07-22T05:54:07.967Z,24.20
2018-07-22T05:56:35.605Z,25.27
2018-07-22T05:59:03.248Z,25.57
2018-07-22T06:01:30.916Z,23.50
2018-07-22T06:03:58.680Z,25.80
2018-07-22T06:06:26.342Z,24.87
2018-07-22T06:08:54.010Z,23.27
2018-07-22T06:11:21.705Z,23.80
2018-07-22T06:13:49.566Z,23.70
2018-07-22T06:16:17.194Z,24.53
2018-07-22T06:18:44.775Z,25.33
2018-07-22T06:21:12.369Z,22.60
2018-07-22T06:23:40.080Z,23.80
2018-07-22T06:26:07.731Z,23.00
2018-07-22T06:28:35.352Z,20.57
2018-07-22T06:31:02.997Z,21.00
2018-07-22T06:33:30.666Z,24.90
2018-07-22T06:35:58.468Z,23.20
2018-07-22T06:38:26.219Z,21.17
2018-07-22T06:40:53.939Z,21.73
2018-07-22T06:43:21.627Z,20.47
2018-07-22T06:45:49.347Z,23.37
2018-07-22T06:48:16.904Z,20.30
2018-07-22T06:50:44.616Z,21.33
2018-07-22T06:53:12.251Z,16.40
2018-07-22T06:55:39.893Z,19.93
2018-07-22T06:58:07.584Z,24.47
2018-07-22T07:00:35.212Z,20.43
2018-07-22T07:03:02.899Z,20.50
2018-07-22T07:05:30.574Z,17.70
2018-07-22T07:07:58.185Z,20.90
2018-07-22T07:10:25.808Z,18.73
2018-07-22T07:12:53.447Z,18.67
2018-07-22T07:15:21.064Z,18.20
2018-07-22T07:17:48.733Z,17.13
2018-07-22T07:20:16.393Z,19.30
2018-07-22T07:22:44.070Z,18.20
2018-07-22T07:25:11.837Z,16.87
2018-07-22T07:27:39.518Z,21.07
2018-07-22T07:30:07.207Z,16.67
2018-07-22T07:32:34.899Z,15.00
2018-07-22T07:35:02.554Z,15.37
2018-07-22T07:37:30.214Z,14.83
2018-07-22T07:39:57.890Z,14.97
2018-07-22T07:42:25.572Z,19.43
2018-07-22T07:44:53.243Z,17.73
2018-07-22T07:47:20.953Z,22.93
2018-07-22T07:49:48.647Z,17.33
2018-07-22T07:52:16.436Z,15.43
2018-07-22T07:54:44.155Z,16.20
2018-07-22T07:57:11.775Z,18.53
2018-07-22T07:59:39.528Z,17.33
2018-07-22T08:02:07.209Z,15.03
2018-07-22T08:04:34.855Z,14.70
2018-07-22T08:07:02.434Z,18.80
2018-07-22T08:09:30.119Z,14.97
2018-07-22T08:11:57.781Z,17.50
2018-07-22T08:14:25.512Z,16.07
2018-07-22T08:16:53.124Z,16.00
2018-07-22T08:19:20.751Z,15.63
2018-07-22T08:21:48.570Z,15.07
2018-07-22T08:24:16.281Z,23.37
2018-07-22T08:26:43.918Z,15.50
2018-07-22T08:29:24.093Z,21.40
2018-07-22T08:31:51.845Z,14.60
2018-07-22T08:34:19.916Z,14.30
2018-07-22T08:36:48.253Z,13.50
2018-07-22T08:39:17.152Z,15.73
2018-07-22T08:41:44.863Z,14.20
2018-07-22T08:44:12.465Z,12.73
2018-07-22T08:46:41.157Z,15.83
2018-07-22T08:49:08.827Z,13.90
2018-07-22T08:51:36.557Z,13.53
2018-07-22T08:54:04.302Z,12.20
2018-07-22T08:56:32.323Z,14.40
2018-07-22T08:59:00.005Z,13.80
2018-07-22T09:01:28.499Z,12.47
2018-07-22T09:03:56.155Z,12.10
2018-07-22T09:06:24.509Z,11.33
2018-07-22T09:08:52.239Z,11.73
2018-07-22T09:11:19.887Z,14.63
2018-07-22T09:13:47.547Z,9.27
2018-07-22T09:16:15.787Z,10.40
2018-07-22T09:18:43.509Z,11.90
2018-07-22T09:21:11.213Z,13.30
2018-07-22T09:23:38.975Z,10.83
2018-07-22T09:26:06.863Z,11.93
2018-07-22T09:28:34.829Z,12.57
2018-07-22T09:31:03.143Z,14.60
2018-07-22T09:33:30.927Z,7.83
2018-07-22T09:35:58.693Z,7.50
2018-07-22T09:38:26.352Z,10.97
2018-07-22T09:40:54.758Z,10.23
2018-07-22T09:43:22.927Z,11.00
2018-07-22T09:45:50.642Z,12.70
2018-07-22T09:48:18.272Z,6.97
2018-07-22T09:50:46.014Z,9.73
2018-07-22T09:53:13.734Z,9.17
2018-07-22T09:55:41.381Z,8.13
2018-07-22T09:58:09.344Z,11.17
2018-07-22T10:00:42.856Z,7.80
2018-07-22T10:03:10.553Z,10.87
2018-07-22T10:05:38.508Z,10.93
2018-07-22T10:08:06.467Z,8.77
2018-07-22T10:10:34.126Z,8.17
2018-07-22T10:13:01.894Z,11.17
2018-07-22T10:15:29.634Z,8.97
2018-07-22T10:17:57.336Z,11.23
2018-07-22T10:20:25.216Z,9.40
2018-07-22T10:22:52.882Z,6.73
2018-07-22T10:25:20.559Z,7.73
2018-07-22T10:27:48.254Z,7.70
2018-07-22T10:30:15.918Z,9.13
2018-07-22T10:32:43.580Z,9.70
2018-07-22T10:35:11.162Z,9.70
2018-07-22T10:37:38.949Z,8.20
2018-07-22T10:40:06.757Z,10.70
2018-07-22T10:42:34.391Z,10.43
2018-07-22T10:45:02.098Z,9.40
2018-07-22T10:47:29.859Z,9.93
2018-07-22T10:49:57.474Z,8.80
2018-07-22T10:52:25.129Z,9.27
2018-07-22T10:54:52.925Z,8.67
2018-07-22T10:57:21.273Z,10.50
2018-07-22T10:59:48.968Z,11.23
2018-07-22T11:02:16.689Z,8.90
2018-07-22T11:04:45.149Z,8.43
2018-07-22T11:07:12.951Z,8.83
2018-07-22T11:09:42.433Z,10.33
2018-07-22T11:12:10.309Z,9.57
2018-07-22T11:14:38.115Z,11.00
2018-07-22T11:17:05.914Z,8.20
2018-07-22T11:19:33.683Z,8.73
2018-07-22T11:22:01.663Z,7.23
2018-07-22T11:24:29.389Z,8.50
2018-07-22T11:26:57.010Z,8.93
2018-07-22T11:29:24.680Z,7.20
2018-07-22T11:31:52.445Z,9.07
2018-07-22T11:34:20.116Z,9.63
2018-07-22T11:36:47.724Z,8.37
2018-07-22T11:39:15.381Z,10.67
2018-07-22T11:41:43.127Z,16.83
2018-07-22T11:44:10.768Z,12.70
2018-07-22T11:46:39.161Z,7.83
2018-07-22T11:49:07.649Z,8.90
2018-07-22T11:51:35.918Z,8.30
2018-07-22T11:54:03.743Z,8.37
2018-07-22T11:56:31.533Z,7.67
2018-07-22T11:58:59.236Z,8.37
2018-07-22T12:01:27.158Z,7.43
2018-07-22T12:03:54.851Z,9.00
2018-07-22T12:06:22.711Z,7.57
2018-07-22T12:08:50.480Z,8.13
2018-07-22T12:11:18.352Z,8.37
2018-07-22T12:13:46.070Z,8.40
2018-07-22T12:16:13.774Z,7.70
2018-07-22T12:18:41.609Z,8.57
2018-07-22T12:21:09.338Z,9.50
2018-07-22T12:23:37.052Z,7.50
2018-07-22T12:26:04.714Z,9.37
2018-07-22T12:28:32.426Z,8.30
2018-07-22T12:31:00.192Z,6.57
2018-07-22T12:33:27.921Z,7.30
2018-07-22T12:35:55.541Z,7.80
2018-07-22T12:38:23.278Z,6.90
2018-07-22T12:40:50.922Z,8.20
2018-07-22T12:43:18.531Z,7.07
2018-07-22T12:45:46.191Z,8.87
2018-07-22T12:48:13.860Z,11.50
2018-07-22T12:50:41.509Z,6.60
2018-07-22T12:53:09.441Z,7.23
2018-07-22T12:55:37.669Z,8.17
2018-07-22T12:58:05.423Z,8.63
2018-07-22T13:00:33.185Z,11.07
2018-07-22T13:03:00.857Z,7.80
2018-07-22T13:05:28.481Z,7.60
2018-07-22T13:07:56.147Z,10.03
2018-07-22T13:10:23.793Z,8.03
2018-07-22T13:12:51.685Z,12.43
2018-07-22T13:15:19.431Z,10.27
2018-07-22T13:17:47.029Z,7.13
2018-07-22T13:20:14.973Z,13.03
2018-07-22T13:22:42.822Z,7.70
2018-07-22T13:25:10.499Z,8.50
2018-07-22T13:27:38.281Z,8.50
2018-07-22T13:30:07.137Z,6.97
2018-07-22T13:32:34.859Z,8.50
2018-07-22T13:35:02.556Z,8.67
2018-07-22T13:37:30.216Z,7.10
2018-07-22T13:39:57.852Z,8.27
2018-07-22T13:42:25.542Z,10.30
2018-07-22T13:44:53.320Z,9.17
2018-07-22T13:47:20.997Z,8.13
2018-07-22T13:49:48.600Z,12.43
2018-07-22T13:52:16.463Z,9.03
2018-07-22T13:54:44.166Z,8.53
2018-07-22T13:57:11.835Z,9.60
2018-07-22T13:59:39.472Z,8.10
2018-07-22T14:02:07.763Z,7.40
2018-07-22T14:04:36.136Z,12.93
2018-07-22T14:07:03.828Z,7.93
2018-07-22T14:09:31.537Z,7.97
2018-07-22T14:11:59.266Z,8.23
2018-07-22T14:14:26.879Z,9.50
2018-07-22T14:16:54.537Z,8.20
2018-07-22T14:19:22.271Z,9.23
2018-07-22T14:21:49.869Z,7.57
2018-07-22T14:24:17.633Z,8.13
2018-07-22T14:26:45.307Z,11.13
2018-07-22T14:29:13.083Z,12.20
2018-07-22T14:31:41.097Z,7.77
2018-07-22T14:34:08.818Z,13.87
2018-07-22T14:36:36.655Z,8.87
2018-07-22T14:39:09.348Z,9.00
2018-07-22T14:41:37.001Z,10.77
2018-07-22T14:44:04.784Z,7.87
2018-07-22T14:46:32.540Z,8.43
2018-07-22T14:49:00.197Z,11.70
2018-07-22T14:51:27.949Z,8.53
2018-07-22T14:53:55.615Z,11.03
2018-07-22T14:56:23.315Z,11.00
2018-07-22T14:58:51.042Z,9.80
2018-07-22T15:01:18.744Z,10.10
2018-07-22T15:03:46.506Z,8.40
2018-07-22T15:06:14.153Z,10.30
2018-07-22T15:08:42.249Z,10.27
2018-07-22T15:11:10.257Z,9.80
2018-07-22T15:13:38.260Z,10.97
2018-07-22T15:16:06.634Z,10.73
2018-07-22T15:18:34.804Z,9.27
2018-07-22T15:21:02.534Z,10.70
2018-07-22T15:23:30.652Z,15.20
2018-07-22T15:25:58.398Z,12.47
2018-07-22T15:28:27.292Z,13.43
2018-07-22T15:30:55.174Z,13.30
2018-07-22T15:33:22.822Z,11.07
2018-07-22T15:35:50.822Z,12.73
2018-07-22T15:38:18.531Z,11.70
2018-07-22T15:40:46.240Z,12.77
2018-07-22T15:43:13.828Z,12.80
2018-07-22T15:45:41.477Z,12.50
2018-07-22T15:48:09.352Z,11.80
2018-07-22T15:50:37.125Z,11.17
2018-07-22T15:53:05.039Z,10.90
2018-07-22T15:55:32.887Z,12.53
2018-07-22T15:58:00.485Z,12.70
2018-07-22T16:00:28.215Z,11.67
2018-07-22T16:02:55.952Z,11.60
2018-07-22T16:05:23.701Z,12.37
2018-07-22T16:07:51.339Z,14.33
2018-07-22T16:10:19.251Z,13.47
2018-07-22T16:12:46.973Z,14.77
2018-07-22T16:15:14.791Z,12.50
2018-07-22T16:17:42.602Z,12.60
2018-07-22T16:20:10.270Z,12.67
2018-07-22T16:22:38.135Z,11.00
2018-07-22T16:25:05.840Z,12.73
2018-07-22T16:27:33.558Z,9.80
2018-07-22T16:30:01.202Z,14.63
2018-07-22T16:32:28.881Z,14.73
2018-07-22T16:34:56.513Z,10.73
2018-07-22T16:37:24.259Z,15.87
2018-07-22T16:39:51.969Z,19.07
2018-07-22T16:42:19.661Z,15.77
2018-07-22T16:44:47.297Z,11.83
2018-07-22T16:47:14.957Z,14.30
2018-07-22T16:49:42.559Z,12.90
2018-07-22T16:52:10.253Z,14.20
2018-07-22T16:54:37.953Z,10.63
2018-07-22T16:57:05.685Z,14.50
2018-07-22T16:59:33.378Z,12.70
2018-07-22T17:02:01.000Z,16.20
2018-07-22T17:04:28.641Z,12.37
2018-07-22T17:06:56.297Z,13.03
2018-07-22T17:09:23.864Z,12.90
2018-07-22T17:11:51.579Z,11.87
2018-07-22T17:14:19.157Z,11.40
2018-07-22T17:16:46.776Z,14.13
2018-07-22T17:19:14.423Z,9.40
2018-07-22T17:21:42.004Z,13.97
2018-07-22T17:24:09.685Z,13.97
2018-07-22T17:26:37.370Z,10.47
2018-07-22T17:29:05.031Z,10.87
2018-07-22T17:31:32.795Z,11.43
2018-07-22T17:34:00.480Z,12.60
2018-07-22T17:36:28.086Z,11.23
2018-07-22T17:38:55.739Z,15.70
2018-07-22T17:41:23.364Z,11.57
2018-07-22T17:43:50.987Z,12.00
2018-07-22T17:46:18.642Z,12.87
2018-07-22T17:48:46.391Z,10.77
2018-07-22T17:51:13.999Z,10.50
2018-07-22T17:53:41.646Z,14.50
2018-07-22T17:56:09.423Z,12.40
2018-07-22T17:58:37.063Z,11.43
2018-07-22T18:01:04.786Z,12.57
2018-07-22T18:03:33.164Z,13.13
2018-07-22T18:06:01.106Z,15.67
2018-07-22T18:08:28.783Z,11.93
2018-07-22T18:10:56.659Z,16.10
2018-07-22T18:13:24.360Z,11.07
2018-07-22T18:15:52.091Z,12.57
2018-07-22T18:18:19.851Z,16.07
2018-07-22T18:20:48.354Z,10.90
2018-07-22T18:23:16.184Z,11.97
2018-07-22T18:25:44.514Z,10.33
2018-07-22T18:28:12.801Z,14.77
2018-07-22T18:30:40.543Z,12.03
2018-07-22T18:33:08.366Z,13.43
2018-07-22T18:35:36.134Z,12.43
2018-07-22T18:38:04.022Z,11.03
2018-07-22T18:40:31.883Z,11.60
2018-07-22T18:43:00.430Z,11.70
2018-07-22T18:45:28.487Z,8.93
2018-07-22T18:47:56.206Z,9.50
2018-07-22T18:50:24.122Z,11.93
2018-07-22T18:52:51.951Z,18.47
2018-07-22T18:55:19.703Z,11.47
2018-07-22T18:57:47.409Z,10.73
2018-07-22T19:00:15.105Z,10.40
2018-07-22T19:02:43.002Z,12.23
2018-07-22T19:05:10.896Z,16.43
2018-07-22T19:07:38.776Z,10.73
2018-07-22T19:10:06.980Z,17.50
2018-07-22T19:12:34.804Z,10.83
2018-07-22T19:15:02.607Z,16.57
2018-07-22T19:17:30.418Z,11.23
2018-07-22T19:19:58.210Z,10.43
2018-07-22T19:22:26.383Z,13.50
2018-07-22T19:24:54.295Z,19.27
2018-07-22T19:27:22.021Z,11.33
2018-07-22T19:29:49.866Z,12.60
2018-07-22T19:32:17.639Z,11.13
2018-07-22T19:34:45.440Z,10.90
2018-07-22T19:37:13.293Z,12.10
2018-07-22T19:39:41.225Z,22.47
2018-07-22T19:42:09.113Z,15.83
2018-07-22T19:44:36.965Z,12.10
2018-07-22T19:47:04.874Z,14.00
2018-07-22T19:49:32.721Z,15.67
2018-07-22T19:52:00.549Z,11.33
2018-07-22T19:54:28.224Z,16.40
2018-07-22T19:56:55.999Z,12.10
2018-07-22T19:59:23.616Z,14.27
2018-07-22T20:01:51.268Z,13.77
2018-07-22T20:04:19.083Z,9.00
2018-07-22T20:06:46.817Z,10.23
2018-07-22T20:09:14.490Z,16.73
2018-07-22T20:11:42.869Z,9.73
2018-07-22T20:14:10.518Z,11.23
2018-07-22T20:16:38.408Z,10.10
2018-07-22T20:19:06.284Z,19.73
2018-07-22T20:21:34.091Z,10.27
2018-07-22T20:24:02.241Z,9.60
2018-07-22T20:26:29.839Z,9.67
2018-07-22T20:28:57.623Z,11.93
2018-07-22T20:31:25.322Z,9.27
2018-07-22T20:33:53.128Z,10.93
2018-07-22T20:36:20.830Z,12.90
2018-07-22T20:38:48.550Z,8.93
2018-07-22T20:41:16.322Z,9.40
2018-07-22T20:43:43.957Z,10.80
2018-07-22T20:46:11.535Z,9.97
2018-07-22T20:48:39.262Z,12.27
2018-07-22T20:51:06.925Z,15.33
2018-07-22T20:53:34.546Z,10.20
2018-07-22T20:56:02.526Z,13.20
2018-07-22T20:58:30.184Z,13.07
2018-07-22T21:00:58.350Z,14.10
2018-07-22T21:03:25.992Z,11.10
2018-07-22T21:05:53.602Z,11.23
2018-07-22T21:08:21.257Z,10.30
2018-07-22T21:10:48.880Z,11.93
2018-07-22T21:13:18.979Z,21.83
2018-07-22T21:15:46.730Z,12.87
2018-07-22T21:18:14.569Z,13.90
2018-07-22T21:20:42.216Z,12.80
2018-07-22T21:23:09.872Z,12.10
2018-07-22T21:25:37.524Z,12.83
2018-07-22T21:28:05.153Z,15.47
2018-07-22T21:30:32.830Z,13.40
2018-07-22T21:33:00.517Z,13.63
2018-07-22T21:35:28.177Z,12.97
2018-07-22T21:37:55.867Z,13.60
2018-07-22T21:40:23.631Z,13.03
2018-07-22T21:42:51.277Z,12.30
2018-07-22T21:45:18.983Z,12.40
2018-07-22T21:47:46.738Z,14.67
2018-07-22T21:50:14.407Z,12.87
2018-07-22T21:52:42.066Z,16.37
2018-07-22T21:55:09.800Z,12.50
2018-07-22T21:57:37.549Z,12.60
2018-07-22T22:00:18.478Z,14.60
2018-07-22T22:02:46.099Z,15.77
2018-07-22T22:05:13.817Z,16.57
2018-07-22T22:07:41.444Z,13.40
2018-07-22T22:10:09.233Z,13.90
2018-07-22T22:12:37.400Z,14.23
2018-07-22T22:15:09.688Z,13.77
2018-07-22T22:17:37.667Z,13.70
2018-07-22T22:20:06.396Z,17.40
2018-07-22T22:22:34.120Z,18.97
2018-07-22T22:25:01.792Z,15.67
2018-07-22T22:27:29.504Z,14.60
2018-07-22T22:29:57.213Z,14.90
2018-07-22T22:32:24.818Z,15.33
2018-07-22T22:34:52.490Z,14.43
2018-07-22T22:37:20.130Z,18.90
2018-07-22T22:39:47.766Z,16.00
2018-07-22T22:42:15.392Z,13.07
2018-07-22T22:44:42.950Z,14.60
2018-07-22T22:47:11.055Z,13.47
2018-07-22T22:49:38.655Z,16.33
2018-07-22T22:52:06.305Z,17.77
2018-07-22T22:54:34.019Z,15.43
2018-07-22T22:57:01.675Z,16.07
2018-07-22T22:59:29.373Z,15.43
2018-07-22T23:01:57.081Z,16.17
2018-07-22T23:04:24.735Z,15.50
2018-07-22T23:06:55.613Z,16.33
2018-07-22T23:09:23.235Z,16.77
2018-07-22T23:11:50.917Z,15.27
2018-07-22T23:14:18.580Z,15.93
2018-07-22T23:16:46.209Z,16.63
2018-07-22T23:19:13.817Z,17.10
2018-07-22T23:21:41.446Z,16.60
2018-07-22T23:24:09.084Z,15.03
2018-07-22T23:26:36.720Z,16.37
2018-07-22T23:29:04.335Z,16.00
2018-07-22T23:31:32.616Z,16.23
2018-07-22T23:34:00.270Z,18.40
2018-07-22T23:36:27.874Z,16.53
2018-07-22T23:38:55.548Z,17.40
2018-07-22T23:41:23.256Z,15.63
2018-07-22T23:43:50.946Z,17.47
2018-07-22T23:46:18.528Z,14.60
2018-07-22T23:48:46.121Z,15.50
2018-07-22T23:51:13.880Z,16.07
2018-07-22T23:53:41.642Z,15.90
2018-07-22T23:56:09.210Z,15.80
2018-07-22T23:58:36.801Z,16.20
